createdAt,value
2018-11-20T00:00:28.677Z,3.90
2018-11-20T00:03:01.384Z,3.90
2018-11-20T00:05:33.773Z,3.80
2018-11-20T00:08:06.447Z,3.90
2018-11-20T00:10:39.430Z,3.90
2018-11-20T00:13:12.109Z,3.90
2018-11-20T00:15:44.734Z,3.90
2018-11-20T00:18:17.165Z,3.90
2018-11-20T00:20:49.557Z,3.90
2018-11-20T00:23:21.966Z,3.90
2018-11-20T00:25:54.647Z,3.90
2018-11-20T00:28:27.113Z,3.90
2018-11-20T00:30:59.806Z,3.90
2018-11-20T00:33:32.235Z,3.80
2018-11-20T00:36:05.064Z,3.80
2018-11-20T00:38:37.777Z,3.80
2018-11-20T00:41:10.185Z,3.80
2018-11-20T00:43:42.922Z,3.70
2018-11-20T00:46:15.657Z,3.70
2018-11-20T00:48:48.097Z,3.70
2018-11-20T00:51:20.510Z,3.70
2018-11-20T00:53:52.951Z,3.70
2018-11-20T00:56:38.978Z,3.70
2018-11-20T00:59:11.673Z,3.70
2018-11-20T01:01:44.078Z,3.70
2018-11-20T01:04:16.510Z,3.70
2018-11-20T01:06:48.932Z,3.70
2018-11-20T01:09:21.363Z,3.70
2018-11-20T01:11:54.026Z,3.70
2018-11-20T01:14:26.732Z,3.70
2018-11-20T01:16:59.142Z,3.70
2018-11-20T01:19:31.610Z,3.70
2018-11-20T01:22:04.017Z,3.80
2018-11-20T01:24:36.718Z,3.80
2018-11-20T01:27:09.122Z,3.80
2018-11-20T01:29:41.886Z,3.80
2018-11-20T01:32:14.298Z,3.80
2018-11-20T01:34:46.705Z,3.80
2018-11-20T01:37:19.102Z,3.80
2018-11-20T01:39:51.533Z,3.80
2018-11-20T01:42:23.921Z,3.80
2018-11-20T01:44:56.350Z,3.80
2018-11-20T01:47:29.007Z,3.80
2018-11-20T01:50:01.662Z,3.80
2018-11-20T01:52:34.071Z,3.80
2018-11-20T01:55:06.496Z,3.80
2018-11-20T01:57:38.912Z,3.80
2018-11-20T02:00:11.334Z,3.80
2018-11-20T02:02:44.006Z,3.80
2018-11-20T02:05:16.697Z,3.80
2018-11-20T02:07:49.374Z,3.80
2018-11-20T02:10:22.399Z,3.80
2018-11-20T02:13:06.167Z,3.80
2018-11-20T02:15:38.593Z,3.80
2018-11-20T02:18:12.670Z,3.80
2018-11-20T02:20:46.813Z,3.80
2018-11-20T02:23:19.462Z,3.80
2018-11-20T02:25:52.181Z,3.80
2018-11-20T02:28:24.598Z,3.80
2018-11-20T02:30:57.025Z,3.80
2018-11-20T02:33:29.423Z,3.70
2018-11-20T02:36:02.069Z,3.70
2018-11-20T02:38:34.470Z,3.70
2018-11-20T02:41:06.885Z,3.70
2018-11-20T02:43:39.294Z,3.70
2018-11-20T02:46:12.185Z,3.70
2018-11-20T02:48:44.573Z,3.70
2018-11-20T02:51:16.996Z,3.70
2018-11-20T02:53:49.393Z,3.70
2018-11-20T02:56:21.808Z,3.70
2018-11-20T02:58:54.208Z,3.70
2018-11-20T03:01:26.930Z,3.70
2018-11-20T03:03:59.609Z,3.70
2018-11-20T03:06:32.030Z,3.70
2018-11-20T03:09:06.143Z,3.80
2018-11-20T03:11:38.885Z,3.80
2018-11-20T03:14:11.290Z,3.70
2018-11-20T03:16:44.026Z,3.70
2018-11-20T03:19:16.769Z,3.80
2018-11-20T03:21:49.458Z,3.80
2018-11-20T03:24:21.894Z,3.80
2018-11-20T03:26:54.391Z,3.80
2018-11-20T03:29:39.706Z,3.80
2018-11-20T03:32:12.135Z,3.80
2018-11-20T03:34:44.554Z,3.80
2018-11-20T03:37:16.986Z,3.80
2018-11-20T03:39:49.670Z,3.80
2018-11-20T03:42:22.102Z,3.80
2018-11-20T03:44:54.822Z,3.70
2018-11-20T03:47:27.289Z,3.70
2018-11-20T03:49:59.715Z,3.70
2018-11-20T03:52:32.154Z,3.70
2018-11-20T03:55:05.024Z,3.70
2018-11-20T03:57:37.457Z,3.70
2018-11-20T04:00:09.888Z,3.70
2018-11-20T04:02:42.315Z,3.70
2018-11-20T04:05:14.741Z,3.70
2018-11-20T04:07:47.174Z,3.70
2018-11-20T04:10:19.590Z,3.70
2018-11-20T04:12:52.022Z,3.70
2018-11-20T04:15:24.710Z,3.70
2018-11-20T04:17:57.211Z,3.70
2018-11-20T04:20:29.561Z,3.70
2018-11-20T04:23:02.269Z,3.70
2018-11-20T04:25:34.674Z,3.70
2018-11-20T04:28:07.426Z,3.70
2018-11-20T04:31:48.359Z,3.60
2018-11-20T04:34:20.770Z,3.70
2018-11-20T04:36:55.388Z,3.60
2018-11-20T04:39:27.794Z,3.60
2018-11-20T04:42:00.182Z,3.60
2018-11-20T04:44:32.898Z,3.60
2018-11-20T04:47:05.603Z,3.70
2018-11-20T04:49:38.021Z,3.70
2018-11-20T04:52:10.429Z,3.70
2018-11-20T04:54:43.090Z,3.70
2018-11-20T04:57:15.492Z,3.70
2018-11-20T04:59:48.139Z,3.70
2018-11-20T05:02:20.539Z,3.70
2018-11-20T05:04:52.951Z,3.70
2018-11-20T05:07:25.805Z,3.70
2018-11-20T05:09:58.484Z,3.70
2018-11-20T05:12:31.172Z,3.70
2018-11-20T05:15:04.138Z,3.70
2018-11-20T05:17:36.786Z,3.70
2018-11-20T05:20:09.194Z,3.70
2018-11-20T05:22:42.140Z,3.70
2018-11-20T05:25:14.829Z,3.70
2018-11-20T05:27:47.321Z,3.70
2018-11-20T05:30:20.003Z,3.70
2018-11-20T05:32:52.426Z,3.70
2018-11-20T05:35:25.154Z,3.70
2018-11-20T05:37:57.582Z,3.70
2018-11-20T05:40:30.437Z,3.80
2018-11-20T05:43:02.718Z,3.70
2018-11-20T05:45:35.197Z,3.70
2018-11-20T05:48:07.614Z,3.80
2018-11-20T05:50:40.322Z,3.80
2018-11-20T05:53:12.726Z,3.80
2018-11-20T05:55:45.469Z,3.80
2018-11-20T05:58:18.206Z,3.80
2018-11-20T06:00:50.918Z,3.70
2018-11-20T06:03:23.335Z,3.70
2018-11-20T06:05:55.774Z,3.70
2018-11-20T06:08:28.411Z,3.70
2018-11-20T06:11:00.850Z,3.70
2018-11-20T06:13:33.281Z,3.70
2018-11-20T06:16:05.716Z,3.70
2018-11-20T06:18:38.162Z,3.70
2018-11-20T06:21:10.598Z,3.80
2018-11-20T06:24:24.708Z,3.80
2018-11-20T06:27:09.513Z,3.80
2018-11-20T06:29:54.534Z,3.80
2018-11-20T06:32:39.657Z,3.80
2018-11-20T06:35:24.812Z,3.80
2018-11-20T06:38:09.643Z,3.80
2018-11-20T06:40:42.381Z,3.80
2018-11-20T06:43:34.500Z,3.80
2018-11-20T06:46:26.344Z,3.80
2018-11-20T06:49:18.226Z,3.90
2018-11-20T06:52:10.041Z,3.80
2018-11-20T06:55:02.153Z,3.80
2018-11-20T06:57:53.982Z,3.90
2018-11-20T07:00:46.089Z,3.90
2018-11-20T07:03:37.942Z,3.80
2018-11-20T07:06:29.764Z,3.90
2018-11-20T07:09:21.622Z,3.90
2018-11-20T07:12:13.460Z,3.90
2018-11-20T07:15:05.770Z,3.90
2018-11-20T07:17:57.492Z,3.90
2018-11-20T07:20:49.572Z,3.90
2018-11-20T07:23:42.289Z,3.90
2018-11-20T07:26:34.379Z,3.90
2018-11-20T07:29:26.231Z,4.00
2018-11-20T07:32:18.051Z,4.00
2018-11-20T07:35:09.903Z,4.00
2018-11-20T07:38:01.739Z,4.00
2018-11-20T07:40:53.571Z,4.00
2018-11-20T07:43:45.726Z,4.00
2018-11-20T07:46:37.493Z,4.00
2018-11-20T07:49:29.329Z,4.00
2018-11-20T07:52:21.150Z,4.00
2018-11-20T07:54:53.842Z,4.00
2018-11-20T07:57:45.660Z,4.00
2018-11-20T08:00:37.501Z,4.10
2018-11-20T08:03:29.326Z,4.10
2018-11-20T08:06:21.166Z,4.10
2018-11-20T08:09:12.997Z,4.10
2018-11-20T08:12:04.816Z,4.10
2018-11-20T08:14:56.656Z,4.20
2018-11-20T08:17:48.771Z,4.20
2018-11-20T08:20:40.614Z,4.20
2018-11-20T08:23:32.438Z,4.20
2018-11-20T08:26:24.468Z,4.20
2018-11-20T08:29:16.389Z,4.20
2018-11-20T08:32:08.487Z,4.20
2018-11-20T08:35:00.585Z,4.30
2018-11-20T08:37:52.693Z,4.30
2018-11-20T08:40:44.509Z,4.30
2018-11-20T08:43:36.348Z,4.30
2018-11-20T08:46:28.194Z,4.30
2018-11-20T08:49:20.016Z,4.30
2018-11-20T08:52:11.867Z,4.40
2018-11-20T08:55:03.989Z,4.40
2018-11-20T08:57:55.821Z,4.50
2018-11-20T09:00:47.647Z,4.50
2018-11-20T09:03:39.483Z,4.60
2018-11-20T09:06:31.307Z,4.60
2018-11-20T09:09:23.396Z,4.60
2018-11-20T09:12:15.219Z,4.70
2018-11-20T09:15:07.061Z,4.70
2018-11-20T09:17:58.952Z,4.70
2018-11-20T09:20:50.721Z,4.70
2018-11-20T09:23:42.569Z,4.80
2018-11-20T09:26:34.396Z,4.80
2018-11-20T09:29:26.253Z,4.90
2018-11-20T09:32:18.075Z,4.90
2018-11-20T09:35:10.002Z,5.00
2018-11-20T09:38:01.754Z,5.00
2018-11-20T09:40:53.607Z,4.90
2018-11-20T09:44:04.850Z,5.00
2018-11-20T09:46:56.724Z,4.90
2018-11-20T09:49:49.068Z,5.00
2018-11-20T09:52:41.191Z,5.00
2018-11-20T09:55:33.252Z,5.00
2018-11-20T09:58:25.076Z,5.00
2018-11-20T10:01:16.928Z,5.10
2018-11-20T10:04:08.750Z,5.10
2018-11-20T10:07:00.911Z,5.10
2018-11-20T10:09:52.662Z,5.00
2018-11-20T10:12:44.492Z,5.00
2018-11-20T10:15:36.644Z,5.10
2018-11-20T10:18:28.592Z,5.10
2018-11-20T10:21:20.412Z,5.10
2018-11-20T10:24:12.189Z,5.10
2018-11-20T10:27:04.265Z,5.20
2018-11-20T10:29:56.090Z,5.20
2018-11-20T10:32:47.928Z,5.30
2018-11-20T10:35:39.775Z,5.30
2018-11-20T10:38:31.591Z,5.30
2018-11-20T10:41:23.443Z,5.40
2018-11-20T10:44:15.286Z,5.40
2018-11-20T10:47:07.152Z,5.30
2018-11-20T10:49:58.968Z,5.40
2018-11-20T10:52:50.825Z,5.40
2018-11-20T10:55:42.646Z,5.50
2018-11-20T10:58:34.735Z,5.50
2018-11-20T11:01:26.571Z,5.50
2018-11-20T11:04:18.481Z,5.50
2018-11-20T11:07:10.539Z,5.50
2018-11-20T11:10:02.397Z,5.50
2018-11-20T11:12:54.230Z,5.50
2018-11-20T11:15:46.096Z,5.50
2018-11-20T11:18:38.236Z,5.60
2018-11-20T11:21:30.020Z,5.70
2018-11-20T11:24:21.881Z,5.70
2018-11-20T11:27:13.696Z,5.80
2018-11-20T11:30:06.590Z,5.80
2018-11-20T11:32:50.930Z,5.90
2018-11-20T11:35:36.008Z,5.90
2018-11-20T11:38:20.833Z,5.80
2018-11-20T11:41:05.717Z,5.80
2018-11-20T11:43:50.962Z,5.70
2018-11-20T11:46:35.608Z,5.70
2018-11-20T11:49:20.245Z,5.70
2018-11-20T11:52:05.342Z,5.80
2018-11-20T11:54:50.700Z,5.90
2018-11-20T11:57:35.419Z,5.90
2018-11-20T12:00:19.940Z,5.90
2018-11-20T12:05:48.893Z,5.90
2018-11-20T12:08:33.662Z,5.90
2018-11-20T12:11:18.685Z,6.00
2018-11-20T12:14:03.705Z,5.90
2018-11-20T12:16:48.966Z,6.00
2018-11-20T12:19:33.733Z,6.00
2018-11-20T12:22:18.708Z,6.00
2018-11-20T12:25:03.448Z,6.00
2018-11-20T12:27:48.516Z,5.90
2018-11-20T12:30:34.828Z,6.00
2018-11-20T12:33:18.045Z,6.00
2018-11-20T12:36:03.303Z,6.00
2018-11-20T12:38:48.156Z,6.00
2018-11-20T12:41:32.730Z,6.00
2018-11-20T12:44:18.116Z,6.10
2018-11-20T12:47:02.255Z,6.00
2018-11-20T12:49:47.130Z,6.00
2018-11-20T12:52:32.511Z,6.00
2018-11-20T12:55:17.168Z,5.90
2018-11-20T12:58:01.980Z,5.90
2018-11-20T13:00:46.820Z,5.90
2018-11-20T13:03:32.941Z,5.80
2018-11-20T13:06:16.702Z,5.90
2018-11-20T13:09:01.835Z,5.90
2018-11-20T13:11:47.065Z,5.90
2018-11-20T13:14:31.822Z,5.90
2018-11-20T13:17:16.589Z,5.90
2018-11-20T13:20:03.877Z,5.90
2018-11-20T13:22:46.785Z,5.90
2018-11-20T13:25:31.719Z,5.90
2018-11-20T13:28:04.499Z,5.90
2018-11-20T13:30:56.325Z,5.80
2018-11-20T13:33:49.685Z,5.80
2018-11-20T13:36:39.994Z,5.80
2018-11-20T13:39:32.153Z,5.80
2018-11-20T13:42:25.398Z,5.80
2018-11-20T13:45:18.656Z,5.90
2018-11-20T13:48:09.057Z,5.80
2018-11-20T13:51:00.877Z,5.80
2018-11-20T13:53:52.726Z,5.90
2018-11-20T13:56:44.551Z,5.90
2018-11-20T13:59:36.889Z,5.90
2018-11-20T14:02:28.789Z,5.90
2018-11-20T14:05:20.610Z,5.80
2018-11-20T14:08:12.444Z,5.80
2018-11-20T14:10:45.464Z,5.80
2018-11-20T14:13:39.646Z,5.70
2018-11-20T14:16:31.469Z,5.70
2018-11-20T14:19:23.311Z,5.80
2018-11-20T14:22:15.138Z,5.80
2018-11-20T14:25:26.845Z,5.70
2018-11-20T14:28:18.658Z,5.70
2018-11-20T14:31:10.511Z,5.70
2018-11-20T14:34:02.611Z,5.70
2018-11-20T14:36:54.745Z,5.70
2018-11-20T14:39:46.596Z,5.60
2018-11-20T14:42:38.446Z,5.60
2018-11-20T14:45:30.308Z,5.60
2018-11-20T14:48:22.466Z,5.50
2018-11-20T14:51:14.611Z,5.50
2018-11-20T14:54:06.436Z,5.60
2018-11-20T14:56:58.263Z,5.60
2018-11-20T14:59:50.408Z,5.60
2018-11-20T15:02:42.231Z,5.60
2018-11-20T15:05:34.066Z,5.60
2018-11-20T15:08:25.943Z,5.60
2018-11-20T15:11:17.708Z,5.50
2018-11-20T15:14:09.795Z,5.50
2018-11-20T15:17:01.635Z,5.50
2018-11-20T15:19:53.465Z,5.50
2018-11-20T15:22:45.320Z,5.40
2018-11-20T15:25:37.247Z,5.40
2018-11-20T15:28:29.327Z,5.30
2018-11-20T15:31:21.200Z,5.30
2018-11-20T15:34:13.024Z,5.30
2018-11-20T15:37:05.176Z,5.30
2018-11-20T15:39:57.259Z,5.30
2018-11-20T15:42:49.125Z,5.30
2018-11-20T15:45:21.566Z,5.30
2018-11-20T15:48:13.404Z,5.30
2018-11-20T15:51:05.262Z,5.20
2018-11-20T15:53:57.101Z,5.20
2018-11-20T15:56:49.177Z,5.20
2018-11-20T15:59:41.019Z,5.20
2018-11-20T16:02:32.892Z,5.20
2018-11-20T16:05:24.716Z,5.10
2018-11-20T16:08:16.567Z,5.10
2018-11-20T16:11:08.650Z,5.10
2018-11-20T16:14:00.747Z,5.00
2018-11-20T16:16:52.565Z,5.00
2018-11-20T16:19:44.392Z,5.10
2018-11-20T16:22:36.236Z,5.10
2018-11-20T16:25:28.090Z,5.10
2018-11-20T16:28:20.459Z,5.10
2018-11-20T16:31:12.310Z,5.00
2018-11-20T16:34:04.142Z,4.90
2018-11-20T16:36:55.963Z,4.90
2018-11-20T16:39:47.822Z,4.90
2018-11-20T16:42:39.618Z,4.80
2018-11-20T16:45:31.447Z,4.80
2018-11-20T16:48:23.266Z,4.80
2018-11-20T16:51:15.103Z,4.80
2018-11-20T16:54:06.920Z,4.80
2018-11-20T16:56:58.752Z,4.80
2018-11-20T16:59:50.871Z,4.80
2018-11-20T17:02:42.687Z,4.70
2018-11-20T17:05:34.524Z,4.70
2018-11-20T17:08:26.357Z,4.70
2018-11-20T17:11:18.201Z,4.70
2018-11-20T17:14:10.013Z,4.70
2018-11-20T17:17:02.173Z,4.70
2018-11-20T17:19:53.965Z,4.70
2018-11-20T17:22:46.315Z,4.80
2018-11-20T17:25:38.180Z,4.70
2018-11-20T17:28:30.019Z,4.70
2018-11-20T17:31:21.869Z,4.70
2018-11-20T17:34:13.708Z,4.70
2018-11-20T17:37:05.796Z,4.70
2018-11-20T17:39:57.618Z,4.80
2018-11-20T17:42:49.450Z,4.80
2018-11-20T17:45:21.882Z,4.80
2018-11-20T17:48:13.718Z,4.80
2018-11-20T17:51:05.538Z,4.80
2018-11-20T17:53:57.360Z,4.80
2018-11-20T17:56:49.181Z,4.70
2018-11-20T17:59:41.023Z,4.70
2018-11-20T18:02:32.852Z,4.70
2018-11-20T18:05:24.683Z,4.70
2018-11-20T18:08:16.531Z,4.70
2018-11-20T18:11:08.361Z,4.70
2018-11-20T18:14:00.447Z,4.60
2018-11-20T18:16:52.260Z,4.60
2018-11-20T18:19:44.436Z,4.60
2018-11-20T18:22:36.263Z,4.60
2018-11-20T18:25:28.115Z,4.60
2018-11-20T18:28:19.939Z,4.60
2018-11-20T18:31:11.787Z,4.60
2018-11-20T18:34:04.170Z,4.60
2018-11-20T18:36:56.006Z,4.60
2018-11-20T18:39:48.101Z,4.70
2018-11-20T18:42:40.695Z,4.70
2018-11-20T18:45:32.515Z,4.70
2018-11-20T18:48:24.384Z,4.70
2018-11-20T18:51:16.207Z,4.70
2018-11-20T18:54:08.313Z,4.70
2018-11-20T18:57:00.146Z,4.70
2018-11-20T18:59:52.006Z,4.70
2018-11-20T19:02:43.863Z,4.60
2018-11-20T19:05:35.681Z,4.60
2018-11-20T19:08:27.526Z,4.60
2018-11-20T19:11:19.357Z,4.60
2018-11-20T19:14:11.246Z,4.70
2018-11-20T19:17:03.038Z,4.70
2018-11-20T19:19:54.878Z,4.70
2018-11-20T19:22:46.725Z,4.60
2018-11-20T19:25:38.584Z,4.70
2018-11-20T19:28:30.427Z,4.60
2018-11-20T19:31:22.273Z,4.60
2018-11-20T19:34:14.415Z,4.60
2018-11-20T19:37:06.251Z,4.50
2018-11-20T19:39:58.090Z,4.40
2018-11-20T19:42:50.265Z,4.40
2018-11-20T19:45:42.101Z,4.30
2018-11-20T19:48:34.269Z,4.30
2018-11-20T19:51:26.566Z,4.30
2018-11-20T19:54:18.548Z,4.30
2018-11-20T19:57:10.184Z,4.30
2018-11-20T20:00:02.025Z,4.20
2018-11-20T20:02:53.868Z,4.20
2018-11-20T20:05:45.943Z,4.30
2018-11-20T20:08:37.779Z,4.30
2018-11-20T20:11:29.635Z,4.30
2018-11-20T20:14:21.714Z,4.20
2018-11-20T20:17:13.558Z,4.20
2018-11-20T20:20:07.499Z,4.20
2018-11-20T20:22:59.330Z,4.10
2018-11-20T20:25:51.180Z,4.00
2018-11-20T20:28:43.039Z,4.00
2018-11-20T20:31:34.862Z,4.00
2018-11-20T20:34:26.708Z,3.90
2018-11-20T20:37:18.540Z,3.90
2018-11-20T20:40:10.397Z,3.80
2018-11-20T20:43:04.978Z,3.80
2018-11-20T20:45:54.094Z,3.80
2018-11-20T20:48:45.959Z,3.70
2018-11-20T20:51:37.797Z,3.70
2018-11-20T20:54:29.633Z,3.70
2018-11-20T20:57:21.452Z,3.70
2018-11-20T21:00:13.519Z,3.60
2018-11-20T21:03:05.344Z,3.60
2018-11-20T21:05:57.182Z,3.70
2018-11-20T21:08:49.001Z,3.70
2018-11-20T21:11:40.837Z,3.70
2018-11-20T21:14:32.921Z,3.80
2018-11-20T21:17:24.765Z,3.90
2018-11-20T21:20:16.585Z,3.90
2018-11-20T21:23:08.712Z,4.00
2018-11-20T21:26:00.557Z,4.00
2018-11-20T21:28:52.389Z,4.00
2018-11-20T21:31:44.225Z,4.00
2018-11-20T21:34:36.042Z,4.00
2018-11-20T21:37:27.889Z,4.10
2018-11-20T21:40:20.056Z,4.10
2018-11-20T21:43:12.149Z,4.20
2018-11-20T21:46:04.016Z,4.20
2018-11-20T21:48:55.852Z,4.30
2018-11-20T21:51:47.701Z,4.30
2018-11-20T21:54:39.524Z,4.30
2018-11-20T21:57:31.564Z,4.40
2018-11-20T22:00:26.395Z,4.40
2018-11-20T22:03:18.242Z,4.40
2018-11-20T22:06:10.074Z,4.40
2018-11-20T22:09:01.917Z,4.40
2018-11-20T22:11:54.050Z,4.40
